Collegeport, Texas
Current Conditions -  °F | °C
As of 5:53 PM on Sunday 21 Dec 2014 (Local Time) from KPSX Reporting Station
Overcast Overcast  
Wind Chill: 59°   Ceiling: 5500
Heat Index: 59°   Visibility: 10mi
Dew Point: 55°   Wind: 8mph
Humidity: 87%   Direction: 120°ESE
Pressure: 29.93"   Gusts: NA
Location:  28.72°N, 96.17°W
Report Text: KPSX 212353Z AUTO 12007KT 10SM OVC055 15/13 A2993 RMK AO2 SLP135 T01500128 10167 20139 58013 $
Loading
Personal Weather Stations






























Interactive Weather Map New forecast layout! Learn more

10-Day Weather Forecast

Advertisements
Track Severe Weather on mobile